sensor_id;sensor_type;location;lat;lon;timestamp;pressure;altitude;pressure_sealevel;temperature;humidity
64388;BME280;50709;52.648;4.764;2022-12-13T00:01:39;101376.13;;;2.25;79.98
64388;BME280;50709;52.648;4.764;2022-12-13T00:04:06;101367.66;;;2.47;81.98
64388;BME280;50709;52.648;4.764;2022-12-13T00:06:33;101346.34;;;1.93;80.65
64388;BME280;50709;52.648;4.764;2022-12-13T00:08:59;101377.72;;;2.04;80.22
64388;BME280;50709;52.648;4.764;2022-12-13T00:11:25;101372.13;;;2.12;81.39
64388;BME280;50709;52.648;4.764;2022-12-13T00:13:51;101380.31;;;2.04;80.74
64388;BME280;50709;52.648;4.764;2022-12-13T00:16:21;101379.13;;;2.15;81.66
64388;BME280;50709;52.648;4.764;2022-12-13T00:18:52;101369.53;;;2.32;81.92
64388;BME280;50709;52.648;4.764;2022-12-13T00:21:21;101379.88;;;1.94;80.05
64388;BME280;50709;52.648;4.764;2022-12-13T00:23:47;101359.47;;;1.79;80.45
64388;BME280;50709;52.648;4.764;2022-12-13T00:26:15;101338.84;;;1.60;81.08
64388;BME280;50709;52.648;4.764;2022-12-13T00:28:41;101371.13;;;1.53;80.96
64388;BME280;50709;52.648;4.764;2022-12-13T00:31:07;101361.38;;;1.46;79.76
64388;BME280;50709;52.648;4.764;2022-12-13T00:33:32;101366.13;;;1.56;79.64
64388;BME280;50709;52.648;4.764;2022-12-13T00:35:58;101359.88;;;1.69;81.36
64388;BME280;50709;52.648;4.764;2022-12-13T00:38:23;101364.66;;;1.25;80.19
64388;BME280;50709;52.648;4.764;2022-12-13T00:40:49;101380.19;;;1.45;82.35
64388;BME280;50709;52.648;4.764;2022-12-13T00:43:16;101373.84;;;1.20;81.02
64388;BME280;50709;52.648;4.764;2022-12-13T00:45:42;101366.22;;;1.40;81.99
64388;BME280;50709;52.648;4.764;2022-12-13T00:48:08;101369.16;;;1.47;79.40
64388;BME280;50709;52.648;4.764;2022-12-13T00:50:33;101364.94;;;1.67;82.38
64388;BME280;50709;52.648;4.764;2022-12-13T00:52:59;101362.44;;;1.51;80.93
64388;BME280;50709;52.648;4.764;2022-12-13T00:55:26;101364.06;;;1.49;79.81
64388;BME280;50709;52.648;4.764;2022-12-13T00:57:51;101350.97;;;1.44;81.09
64388;BME280;50709;52.648;4.764;2022-12-13T01:00:17;101355.53;;;1.14;81.26
64388;BME280;50709;52.648;4.764;2022-12-13T01:05:52;101346.34;;;1.37;79.78
64388;BME280;50709;52.648;4.764;2022-12-13T01:08:17;101349.34;;;1.64;81.87
64388;BME280;50709;52.648;4.764;2022-12-13T01:10:46;101348.91;;;1.37;80.73
64388;BME280;50709;52.648;4.764;2022-12-13T01:13:13;101349.53;;;1.31;82.10
64388;BME280;50709;52.648;4.764;2022-12-13T01:15:42;101335.53;;;1.26;81.65
64388;BME280;50709;52.648;4.764;2022-12-13T01:18:09;101349.97;;;1.41;80.92
64388;BME280;50709;52.648;4.764;2022-12-13T01:20:35;101348.84;;;1.54;82.15
64388;BME280;50709;52.648;4.764;2022-12-13T01:23:01;101354.06;;;1.55;81.36
64388;BME280;50709;52.648;4.764;2022-12-13T01:25:26;101358.78;;;1.28;80.87
64388;BME280;50709;52.648;4.764;2022-12-13T01:27:52;101363.03;;;1.27;81.87
64388;BME280;50709;52.648;4.764;2022-12-13T01:30:17;101353.63;;;1.28;81.22
64388;BME280;50709;52.648;4.764;2022-12-13T01:32:43;101343.84;;;1.39;81.63
64388;BME280;50709;52.648;4.764;2022-12-13T01:35:08;101353.06;;;1.89;81.84
64388;BME280;50709;52.648;4.764;2022-12-13T01:37:34;101367.00;;;1.75;81.03
64388;BME280;50709;52.648;4.764;2022-12-13T01:40:02;101347.88;;;1.70;81.27
64388;BME280;50709;52.648;4.764;2022-12-13T01:42:28;101362.03;;;1.79;82.15
64388;BME280;50709;52.648;4.764;2022-12-13T01:45:05;101370.66;;;1.80;81.59
64388;BME280;50709;52.648;4.764;2022-12-13T01:47:43;101363.69;;;1.77;81.44
64388;BME280;50709;52.648;4.764;2022-12-13T01:50:14;101361.72;;;1.91;81.86
64388;BME280;50709;52.648;4.764;2022-12-13T01:52:42;101345.31;;;1.51;81.21
64388;BME280;50709;52.648;4.764;2022-12-13T01:55:09;101362.25;;;1.84;81.40
64388;BME280;50709;52.648;4.764;2022-12-13T01:57:38;101362.09;;;1.99;82.58
64388;BME280;50709;52.648;4.764;2022-12-13T02:00:05;101328.81;;;1.66;80.95
64388;BME280;50709;52.648;4.764;2022-12-13T02:02:32;101343.28;;;1.82;81.08
64388;BME280;50709;52.648;4.764;2022-12-13T02:05:27;101351.91;;;1.82;81.73
64388;BME280;50709;52.648;4.764;2022-12-13T02:07:56;101352.88;;;1.66;80.52
64388;BME280;50709;52.648;4.764;2022-12-13T02:10:22;101354.66;;;1.49;80.00
64388;BME280;50709;52.648;4.764;2022-12-13T02:12:49;101358.97;;;1.68;80.95
64388;BME280;50709;52.648;4.764;2022-12-13T02:15:16;101364.16;;;1.88;81.63
64388;BME280;50709;52.648;4.764;2022-12-13T02:18:04;101347.97;;;1.91;81.20
64388;BME280;50709;52.648;4.764;2022-12-13T02:31:50;101349.44;;;1.85;82.16
64388;BME280;50709;52.648;4.764;2022-12-13T02:34:21;101350.00;;;1.60;81.33
64388;BME280;50709;52.648;4.764;2022-12-13T02:37:07;101356.94;;;1.25;81.21
64388;BME280;50709;52.648;4.764;2022-12-13T02:39:40;101351.44;;;1.36;81.90
64388;BME280;50709;52.648;4.764;2022-12-13T02:42:11;101349.66;;;1.34;81.49
64388;BME280;50709;52.648;4.764;2022-12-13T02:44:54;101340.34;;;1.37;81.33
64388;BME280;50709;52.648;4.764;2022-12-13T02:47:23;101322.31;;;1.37;81.89
64388;BME280;50709;52.648;4.764;2022-12-13T02:49:56;101316.03;;;1.67;83.70
64388;BME280;50709;52.648;4.764;2022-12-13T02:52:28;101340.38;;;1.56;80.33
64388;BME280;50709;52.648;4.764;2022-12-13T02:54:55;101321.91;;;0.93;79.99
64388;BME280;50709;52.648;4.764;2022-12-13T02:57:36;101333.09;;;1.29;81.93
64388;BME280;50709;52.648;4.764;2022-12-13T03:00:07;101307.81;;;0.84;80.79
64388;BME280;50709;52.648;4.764;2022-12-13T03:08:38;101331.13;;;1.24;82.15
64388;BME280;50709;52.648;4.764;2022-12-13T03:11:10;101304.22;;;1.17;81.63
64388;BME280;50709;52.648;4.764;2022-12-13T03:16:26;101309.50;;;1.20;81.48
64388;BME280;50709;52.648;4.764;2022-12-13T03:18:54;101332.09;;;1.44;81.82
64388;BME280;50709;52.648;4.764;2022-12-13T03:21:22;101317.00;;;1.33;81.01
64388;BME280;50709;52.648;4.764;2022-12-13T03:23:47;101322.09;;;1.50;81.56
64388;BME280;50709;52.648;4.764;2022-12-13T03:26:16;101331.38;;;1.66;81.58
64388;BME280;50709;52.648;4.764;2022-12-13T03:28:43;101307.53;;;1.14;81.29
64388;BME280;50709;52.648;4.764;2022-12-13T03:31:08;101321.63;;;1.23;81.98
64388;BME280;50709;52.648;4.764;2022-12-13T03:33:34;101300.31;;;1.25;81.73
64388;BME280;50709;52.648;4.764;2022-12-13T03:36:00;101317.75;;;1.49;81.76
64388;BME280;50709;52.648;4.764;2022-12-13T03:38:27;101309.94;;;1.47;81.24
64388;BME280;50709;52.648;4.764;2022-12-13T03:40:58;101329.00;;;1.33;80.34
64388;BME280;50709;52.648;4.764;2022-12-13T03:43:25;101329.81;;;1.50;81.44
64388;BME280;50709;52.648;4.764;2022-12-13T03:45:52;101324.06;;;1.93;81.80
64388;BME280;50709;52.648;4.764;2022-12-13T03:48:18;101296.97;;;1.64;81.43
64388;BME280;50709;52.648;4.764;2022-12-13T03:50:44;101328.41;;;1.57;81.66
64388;BME280;50709;52.648;4.764;2022-12-13T03:53:09;101334.66;;;1.44;81.12
64388;BME280;50709;52.648;4.764;2022-12-13T03:55:34;101315.47;;;1.19;80.73
64388;BME280;50709;52.648;4.764;2022-12-13T03:58:00;101307.59;;;1.16;80.53
64388;BME280;50709;52.648;4.764;2022-12-13T04:00:25;101317.09;;;1.17;80.00
64388;BME280;50709;52.648;4.764;2022-12-13T04:02:50;101318.19;;;1.22;81.05
64388;BME280;50709;52.648;4.764;2022-12-13T04:05:16;101323.78;;;1.13;81.46
64388;BME280;50709;52.648;4.764;2022-12-13T04:07:42;101310.75;;;1.10;81.29
64388;BME280;50709;52.648;4.764;2022-12-13T04:10:07;101317.16;;;1.37;81.65
64388;BME280;50709;52.648;4.764;2022-12-13T04:12:33;101307.22;;;1.44;81.04
64388;BME280;50709;52.648;4.764;2022-12-13T04:15:17;101311.81;;;1.70;81.99
64388;BME280;50709;52.648;4.764;2022-12-13T04:17:42;101295.19;;;1.63;81.96
64388;BME280;50709;52.648;4.764;2022-12-13T04:20:08;101314.53;;;1.35;80.85
64388;BME280;50709;52.648;4.764;2022-12-13T04:22:34;101309.81;;;1.26;81.08
64388;BME280;50709;52.648;4.764;2022-12-13T04:24:59;101300.84;;;1.18;81.05
64388;BME280;50709;52.648;4.764;2022-12-13T04:27:24;101299.22;;;1.20;80.22
64388;BME280;50709;52.648;4.764;2022-12-13T04:29:50;101301.94;;;1.41;81.88
64388;BME280;50709;52.648;4.764;2022-12-13T04:32:15;101296.41;;;1.33;81.02
64388;BME280;50709;52.648;4.764;2022-12-13T04:34:41;101298.06;;;1.13;81.05
64388;BME280;50709;52.648;4.764;2022-12-13T04:37:06;101294.31;;;1.25;81.51
64388;BME280;50709;52.648;4.764;2022-12-13T04:39:32;101286.88;;;1.13;81.15
64388;BME280;50709;52.648;4.764;2022-12-13T04:41:57;101292.38;;;1.39;81.43
64388;BME280;50709;52.648;4.764;2022-12-13T04:44:22;101282.91;;;1.20;80.83
64388;BME280;50709;52.648;4.764;2022-12-13T04:46:48;101283.06;;;1.05;80.53
64388;BME280;50709;52.648;4.764;2022-12-13T04:49:13;101297.41;;;1.17;81.40
64388;BME280;50709;52.648;4.764;2022-12-13T04:51:38;101278.00;;;1.24;81.87
64388;BME280;50709;52.648;4.764;2022-12-13T04:54:04;101288.78;;;1.35;82.12
64388;BME280;50709;52.648;4.764;2022-12-13T04:56:29;101288.50;;;1.11;80.35
64388;BME280;50709;52.648;4.764;2022-12-13T04:58:55;101293.56;;;0.91;80.35
64388;BME280;50709;52.648;4.764;2022-12-13T05:01:20;101282.44;;;0.74;81.21
64388;BME280;50709;52.648;4.764;2022-12-13T05:03:45;101281.50;;;0.72;81.91
64388;BME280;50709;52.648;4.764;2022-12-13T05:06:12;101284.44;;;0.98;82.41
64388;BME280;50709;52.648;4.764;2022-12-13T05:08:39;101289.66;;;0.99;81.74
64388;BME280;50709;52.648;4.764;2022-12-13T05:11:05;101282.38;;;0.73;81.12
64388;BME280;50709;52.648;4.764;2022-12-13T05:13:31;101258.56;;;0.77;82.74
64388;BME280;50709;52.648;4.764;2022-12-13T05:15:59;101283.78;;;1.02;81.81
64388;BME280;50709;52.648;4.764;2022-12-13T05:18:25;101286.09;;;0.61;80.25
64388;BME280;50709;52.648;4.764;2022-12-13T05:20:51;101265.94;;;0.69;82.19
64388;BME280;50709;52.648;4.764;2022-12-13T05:23:18;101293.34;;;0.87;82.23
64388;BME280;50709;52.648;4.764;2022-12-13T05:25:44;101282.16;;;0.86;82.45
64388;BME280;50709;52.648;4.764;2022-12-13T05:28:10;101274.53;;;1.06;82.11
64388;BME280;50709;52.648;4.764;2022-12-13T05:30:39;101266.16;;;1.10;81.92
64388;BME280;50709;52.648;4.764;2022-12-13T05:33:05;101278.00;;;1.24;82.26
64388;BME280;50709;52.648;4.764;2022-12-13T05:35:31;101267.91;;;1.29;81.88
64388;BME280;50709;52.648;4.764;2022-12-13T05:37:57;101270.31;;;1.44;81.24
64388;BME280;50709;52.648;4.764;2022-12-13T05:40:23;101276.25;;;1.61;81.69
64388;BME280;50709;52.648;4.764;2022-12-13T05:42:49;101236.84;;;1.44;81.72
64388;BME280;50709;52.648;4.764;2022-12-13T05:45:16;101268.44;;;1.79;81.22
64388;BME280;50709;52.648;4.764;2022-12-13T05:47:41;101270.69;;;1.71;80.91
64388;BME280;50709;52.648;4.764;2022-12-13T05:50:07;101261.50;;;2.17;82.03
64388;BME280;50709;52.648;4.764;2022-12-13T05:52:32;101264.59;;;2.08;79.53
64388;BME280;50709;52.648;4.764;2022-12-13T05:54:57;101254.28;;;2.70;81.68
64388;BME280;50709;52.648;4.764;2022-12-13T05:57:23;101246.41;;;2.46;79.70
64388;BME280;50709;52.648;4.764;2022-12-13T05:59:48;101249.88;;;2.06;78.12
64388;BME280;50709;52.648;4.764;2022-12-13T06:02:14;101256.91;;;2.10;78.68
64388;BME280;50709;52.648;4.764;2022-12-13T06:04:39;101258.13;;;2.38;78.94
64388;BME280;50709;52.648;4.764;2022-12-13T06:07:05;101259.16;;;2.22;78.36
64388;BME280;50709;52.648;4.764;2022-12-13T06:09:31;101256.28;;;2.56;79.91
64388;BME280;50709;52.648;4.764;2022-12-13T06:11:59;101264.47;;;2.46;77.85
64388;BME280;50709;52.648;4.764;2022-12-13T06:14:25;101266.41;;;2.51;76.53
64388;BME280;50709;52.648;4.764;2022-12-13T06:16:51;101272.47;;;2.94;78.36
64388;BME280;50709;52.648;4.764;2022-12-13T06:19:16;101240.88;;;2.79;77.21
64388;BME280;50709;52.648;4.764;2022-12-13T06:21:42;101269.38;;;2.61;75.80
64388;BME280;50709;52.648;4.764;2022-12-13T06:24:07;101262.44;;;2.39;77.36
64388;BME280;50709;52.648;4.764;2022-12-13T06:26:33;101269.53;;;2.23;76.70
64388;BME280;50709;52.648;4.764;2022-12-13T06:28:58;101272.06;;;2.43;78.74
64388;BME280;50709;52.648;4.764;2022-12-13T06:31:24;101270.91;;;2.36;77.42
64388;BME280;50709;52.648;4.764;2022-12-13T06:33:49;101273.19;;;2.49;78.25
64388;BME280;50709;52.648;4.764;2022-12-13T06:36:15;101271.97;;;4.45;77.86
64388;BME280;50709;52.648;4.764;2022-12-13T06:38:41;101276.44;;;3.52;74.05
64388;BME280;50709;52.648;4.764;2022-12-13T06:41:11;101267.19;;;3.14;74.51
64388;BME280;50709;52.648;4.764;2022-12-13T06:43:36;101269.75;;;4.06;76.92
64388;BME280;50709;52.648;4.764;2022-12-13T06:46:02;101269.03;;;4.10;75.35
64388;BME280;50709;52.648;4.764;2022-12-13T06:48:28;101265.63;;;3.87;73.96
64388;BME280;50709;52.648;4.764;2022-12-13T06:50:54;101273.59;;;3.93;74.59
64388;BME280;50709;52.648;4.764;2022-12-13T06:53:19;101273.66;;;3.95;74.23
64388;BME280;50709;52.648;4.764;2022-12-13T06:55:44;101287.03;;;3.60;75.37
64388;BME280;50709;52.648;4.764;2022-12-13T06:58:10;101281.19;;;3.42;75.80
64388;BME280;50709;52.648;4.764;2022-12-13T07:00:36;101283.34;;;3.31;76.32
64388;BME280;50709;52.648;4.764;2022-12-13T07:03:01;101279.94;;;3.09;75.72
64388;BME280;50709;52.648;4.764;2022-12-13T07:05:26;101277.94;;;2.81;74.71
64388;BME280;50709;52.648;4.764;2022-12-13T07:07:51;101286.91;;;3.12;77.09
64388;BME280;50709;52.648;4.764;2022-12-13T07:10:17;101286.22;;;3.16;75.42
64388;BME280;50709;52.648;4.764;2022-12-13T07:12:42;101283.78;;;3.42;75.21
64388;BME280;50709;52.648;4.764;2022-12-13T07:15:08;101288.00;;;3.18;75.62
64388;BME280;50709;52.648;4.764;2022-12-13T07:17:34;101287.78;;;3.58;77.75
64388;BME280;50709;52.648;4.764;2022-12-13T07:20:00;101289.81;;;2.98;75.47
64388;BME280;50709;52.648;4.764;2022-12-13T07:22:25;101284.22;;;2.66;75.70
64388;BME280;50709;52.648;4.764;2022-12-13T07:24:51;101286.59;;;2.62;76.54
64388;BME280;50709;52.648;4.764;2022-12-13T07:27:16;101291.72;;;2.81;78.42
64388;BME280;50709;52.648;4.764;2022-12-13T07:29:42;101286.28;;;2.54;77.93
64388;BME280;50709;52.648;4.764;2022-12-13T07:32:07;101290.59;;;2.34;77.42
64388;BME280;50709;52.648;4.764;2022-12-13T07:34:32;101288.16;;;2.37;77.26
64388;BME280;50709;52.648;4.764;2022-12-13T07:36:57;101293.44;;;2.40;78.74
64388;BME280;50709;52.648;4.764;2022-12-13T07:39:23;101299.81;;;2.29;78.25
64388;BME280;50709;52.648;4.764;2022-12-13T07:41:53;101293.88;;;1.91;77.29
64388;BME280;50709;52.648;4.764;2022-12-13T07:44:19;101297.81;;;1.82;77.08
64388;BME280;50709;52.648;4.764;2022-12-13T07:46:44;101295.47;;;2.28;79.56
64388;BME280;50709;52.648;4.764;2022-12-13T07:49:10;101298.91;;;2.48;79.43
64388;BME280;50709;52.648;4.764;2022-12-13T07:51:35;101305.09;;;2.51;79.39
64388;BME280;50709;52.648;4.764;2022-12-13T07:54:01;101296.56;;;2.33;77.25
64388;BME280;50709;52.648;4.764;2022-12-13T07:56:26;101298.97;;;2.28;78.22
64388;BME280;50709;52.648;4.764;2022-12-13T07:58:52;101308.03;;;2.00;77.69
64388;BME280;50709;52.648;4.764;2022-12-13T08:01:17;101315.66;;;1.97;78.76
64388;BME280;50709;52.648;4.764;2022-12-13T08:03:42;101310.00;;;1.87;78.68
64388;BME280;50709;52.648;4.764;2022-12-13T08:06:08;101318.50;;;2.23;79.16
64388;BME280;50709;52.648;4.764;2022-12-13T08:08:34;101318.66;;;1.89;78.41
64388;BME280;50709;52.648;4.764;2022-12-13T08:11:06;101320.53;;;2.11;79.41
64388;BME280;50709;52.648;4.764;2022-12-13T08:13:32;101322.00;;;1.86;77.83
64388;BME280;50709;52.648;4.764;2022-12-13T08:15:58;101326.50;;;2.10;79.44
64388;BME280;50709;52.648;4.764;2022-12-13T08:18:24;101328.56;;;1.79;79.45
64388;BME280;50709;52.648;4.764;2022-12-13T08:20:50;101324.03;;;2.13;79.37
64388;BME280;50709;52.648;4.764;2022-12-13T08:23:15;101324.50;;;2.43;80.20
64388;BME280;50709;52.648;4.764;2022-12-13T08:25:40;101320.34;;;2.47;79.57
64388;BME280;50709;52.648;4.764;2022-12-13T08:28:05;101323.09;;;2.30;80.08
64388;BME280;50709;52.648;4.764;2022-12-13T08:30:31;101334.81;;;2.43;80.78
64388;BME280;50709;52.648;4.764;2022-12-13T08:32:56;101328.03;;;2.45;80.71
64388;BME280;50709;52.648;4.764;2022-12-13T08:35:22;101326.19;;;2.43;79.74
64388;BME280;50709;52.648;4.764;2022-12-13T08:37:47;101323.50;;;2.40;79.75
64388;BME280;50709;52.648;4.764;2022-12-13T08:40:12;101331.03;;;2.15;78.68
64388;BME280;50709;52.648;4.764;2022-12-13T08:42:38;101324.56;;;2.25;80.48
64388;BME280;50709;52.648;4.764;2022-12-13T08:45:03;101326.63;;;2.13;79.65
64388;BME280;50709;52.648;4.764;2022-12-13T08:47:28;101327.72;;;1.98;79.25
64388;BME280;50709;52.648;4.764;2022-12-13T08:49:54;101329.66;;;2.43;81.00
64388;BME280;50709;52.648;4.764;2022-12-13T08:52:21;101321.34;;;2.10;79.61
64388;BME280;50709;52.648;4.764;2022-12-13T08:54:46;101313.75;;;2.32;79.56
64388;BME280;50709;52.648;4.764;2022-12-13T08:57:12;101317.69;;;2.24;79.36
64388;BME280;50709;52.648;4.764;2022-12-13T08:59:37;101317.13;;;2.31;78.96
64388;BME280;50709;52.648;4.764;2022-12-13T09:02:02;101317.81;;;2.27;79.61
64388;BME280;50709;52.648;4.764;2022-12-13T09:04:27;101309.56;;;2.36;79.49
64388;BME280;50709;52.648;4.764;2022-12-13T09:06:53;101311.78;;;2.27;78.75
64388;BME280;50709;52.648;4.764;2022-12-13T09:09:18;101307.16;;;2.39;78.94
64388;BME280;50709;52.648;4.764;2022-12-13T09:11:43;101319.34;;;2.24;78.96
64388;BME280;50709;52.648;4.764;2022-12-13T09:14:09;101312.91;;;2.33;80.09
64388;BME280;50709;52.648;4.764;2022-12-13T09:16:34;101315.88;;;2.43;79.23
64388;BME280;50709;52.648;4.764;2022-12-13T09:19:05;101327.09;;;2.64;79.47
64388;BME280;50709;52.648;4.764;2022-12-13T09:21:30;101322.50;;;2.57;78.30
64388;BME280;50709;52.648;4.764;2022-12-13T09:23:55;101330.88;;;2.73;79.82
64388;BME280;50709;52.648;4.764;2022-12-13T09:26:21;101327.25;;;2.67;79.09
64388;BME280;50709;52.648;4.764;2022-12-13T09:28:46;101325.22;;;2.60;79.05
64388;BME280;50709;52.648;4.764;2022-12-13T09:31:13;101318.88;;;2.73;78.70
64388;BME280;50709;52.648;4.764;2022-12-13T09:33:38;101319.53;;;2.48;77.96
64388;BME280;50709;52.648;4.764;2022-12-13T09:36:04;101310.63;;;2.61;78.11
64388;BME280;50709;52.648;4.764;2022-12-13T09:38:30;101310.09;;;2.89;79.17
64388;BME280;50709;52.648;4.764;2022-12-13T09:40:55;101314.41;;;2.69;78.40
64388;BME280;50709;52.648;4.764;2022-12-13T09:43:23;101305.22;;;2.97;78.51
64388;BME280;50709;52.648;4.764;2022-12-13T09:45:50;101304.56;;;3.24;78.95
64388;BME280;50709;52.648;4.764;2022-12-13T09:48:19;101302.50;;;3.15;78.38
64388;BME280;50709;52.648;4.764;2022-12-13T09:50:45;101299.59;;;3.28;77.98
64388;BME280;50709;52.648;4.764;2022-12-13T09:53:12;101303.00;;;3.27;77.78
64388;BME280;50709;52.648;4.764;2022-12-13T09:55:42;101305.53;;;3.26;77.60
64388;BME280;50709;52.648;4.764;2022-12-13T09:58:11;101302.81;;;3.23;78.41
64388;BME280;50709;52.648;4.764;2022-12-13T10:00:38;101304.72;;;3.27;77.53
64388;BME280;50709;52.648;4.764;2022-12-13T10:03:04;101302.63;;;3.18;78.08
64388;BME280;50709;52.648;4.764;2022-12-13T10:05:31;101302.25;;;3.30;78.33
64388;BME280;50709;52.648;4.764;2022-12-13T10:07:58;101300.28;;;3.47;76.26
64388;BME280;50709;52.648;4.764;2022-12-13T10:10:24;101300.53;;;3.30;76.97
64388;BME280;50709;52.648;4.764;2022-12-13T10:12:51;101303.88;;;3.50;76.83
64388;BME280;50709;52.648;4.764;2022-12-13T10:15:18;101306.97;;;3.19;74.91
64388;BME280;50709;52.648;4.764;2022-12-13T10:17:44;101301.16;;;3.25;75.31
64388;BME280;50709;52.648;4.764;2022-12-13T10:20:16;101292.44;;;3.44;77.02
64388;BME280;50709;52.648;4.764;2022-12-13T10:22:43;101293.75;;;3.55;75.34
64388;BME280;50709;52.648;4.764;2022-12-13T10:25:08;101294.66;;;3.34;74.73
64388;BME280;50709;52.648;4.764;2022-12-13T10:27:42;101291.84;;;3.28;75.56
64388;BME280;50709;52.648;4.764;2022-12-13T10:30:14;101287.72;;;3.11;72.29
64388;BME280;50709;52.648;4.764;2022-12-13T10:32:43;101286.56;;;3.25;75.48
64388;BME280;50709;52.648;4.764;2022-12-13T10:35:21;101277.91;;;3.02;74.65
64388;BME280;50709;52.648;4.764;2022-12-13T10:37:47;101274.34;;;3.44;75.49
64388;BME280;50709;52.648;4.764;2022-12-13T10:40:22;101277.06;;;3.24;74.60
64388;BME280;50709;52.648;4.764;2022-12-13T10:45:32;101275.53;;;3.52;71.38
64388;BME280;50709;52.648;4.764;2022-12-13T10:47:57;101275.97;;;3.40;73.66
64388;BME280;50709;52.648;4.764;2022-12-13T10:50:24;101272.97;;;2.85;69.59
64388;BME280;50709;52.648;4.764;2022-12-13T10:52:50;101272.78;;;3.03;70.00
64388;BME280;50709;52.648;4.764;2022-12-13T10:57:50;101272.38;;;3.36;75.42
64388;BME280;50709;52.648;4.764;2022-12-13T11:03:00;101263.16;;;3.43;73.19
64388;BME280;50709;52.648;4.764;2022-12-13T11:05:32;101270.50;;;3.32;72.78
64388;BME280;50709;52.648;4.764;2022-12-13T11:08:11;101252.41;;;3.55;75.68
64388;BME280;50709;52.648;4.764;2022-12-13T11:10:36;101266.34;;;3.60;74.40
64388;BME280;50709;52.648;4.764;2022-12-13T11:13:02;101261.16;;;3.59;74.58
64388;BME280;50709;52.648;4.764;2022-12-13T11:15:28;101266.84;;;3.50;70.03
64388;BME280;50709;52.648;4.764;2022-12-13T11:17:56;101254.13;;;3.79;75.07
64388;BME280;50709;52.648;4.764;2022-12-13T11:20:23;101258.53;;;3.81;75.20
64388;BME280;50709;52.648;4.764;2022-12-13T11:22:57;101256.13;;;3.39;72.16
64388;BME280;50709;52.648;4.764;2022-12-13T11:25:32;101256.34;;;3.45;72.94
64388;BME280;50709;52.648;4.764;2022-12-13T11:28:09;101257.28;;;3.47;72.24
64388;BME280;50709;52.648;4.764;2022-12-13T11:30:51;101251.00;;;3.63;73.15
64388;BME280;50709;52.648;4.764;2022-12-13T11:33:41;101238.91;;;3.62;71.20
64388;BME280;50709;52.648;4.764;2022-12-13T11:38:55;101239.63;;;3.13;72.26
64388;BME280;50709;52.648;4.764;2022-12-13T11:41:27;101244.84;;;3.37;73.99
64388;BME280;50709;52.648;4.764;2022-12-13T11:43:55;101240.75;;;3.42;73.19
64388;BME280;50709;52.648;4.764;2022-12-13T11:46:27;101235.53;;;3.18;72.73
64388;BME280;50709;52.648;4.764;2022-12-13T11:48:54;101237.38;;;2.99;71.13
64388;BME280;50709;52.648;4.764;2022-12-13T11:51:26;101235.75;;;3.01;72.01
64388;BME280;50709;52.648;4.764;2022-12-13T11:53:58;101228.94;;;2.81;72.12
64388;BME280;50709;52.648;4.764;2022-12-13T11:56:26;101225.84;;;3.12;72.34
64388;BME280;50709;52.648;4.764;2022-12-13T11:59:04;101217.09;;;3.31;72.68
64388;BME280;50709;52.648;4.764;2022-12-13T12:01:44;101227.31;;;3.51;73.46
64388;BME280;50709;52.648;4.764;2022-12-13T12:06:41;101224.72;;;3.28;71.63
64388;BME280;50709;52.648;4.764;2022-12-13T12:09:11;101220.03;;;3.18;66.55
64388;BME280;50709;52.648;4.764;2022-12-13T12:14:38;101212.69;;;3.51;72.70
64388;BME280;50709;52.648;4.764;2022-12-13T12:17:07;101214.59;;;3.57;72.96
64388;BME280;50709;52.648;4.764;2022-12-13T12:19:37;101206.16;;;3.39;70.94
64388;BME280;50709;52.648;4.764;2022-12-13T12:22:18;101213.03;;;3.38;71.05
64388;BME280;50709;52.648;4.764;2022-12-13T12:34:42;101216.94;;;2.83;70.40
64388;BME280;50709;52.648;4.764;2022-12-13T12:45:12;101200.09;;;3.36;70.63
64388;BME280;50709;52.648;4.764;2022-12-13T13:00:16;101206.75;;;2.86;67.60
64388;BME280;50709;52.648;4.764;2022-12-13T13:05:18;101203.31;;;3.08;72.21
64388;BME280;50709;52.648;4.764;2022-12-13T13:07:46;101202.22;;;3.24;70.87
64388;BME280;50709;52.648;4.764;2022-12-13T13:10:12;101203.88;;;3.24;68.34
64388;BME280;50709;52.648;4.764;2022-12-13T13:12:39;101190.28;;;3.28;73.83
64388;BME280;50709;52.648;4.764;2022-12-13T13:17:49;101194.06;;;3.13;70.48
64388;BME280;50709;52.648;4.764;2022-12-13T13:20:15;101191.47;;;2.91;67.07
64388;BME280;50709;52.648;4.764;2022-12-13T13:22:41;101185.88;;;2.80;67.90
64388;BME280;50709;52.648;4.764;2022-12-13T13:27:35;101189.34;;;2.80;73.71
64388;BME280;50709;52.648;4.764;2022-12-13T13:30:13;101188.53;;;2.81;72.22
64388;BME280;50709;52.648;4.764;2022-12-13T13:32:39;101180.84;;;3.06;71.76
64388;BME280;50709;52.648;4.764;2022-12-13T13:37:48;101174.28;;;3.61;75.64
64388;BME280;50709;52.648;4.764;2022-12-13T13:48:21;101165.16;;;3.24;71.41
64388;BME280;50709;52.648;4.764;2022-12-13T13:51:05;101178.94;;;3.00;72.66
64388;BME280;50709;52.648;4.764;2022-12-13T13:53:40;101165.19;;;3.01;70.07
64388;BME280;50709;52.648;4.764;2022-12-13T14:01:19;101156.16;;;3.12;65.46
64388;BME280;50709;52.648;4.764;2022-12-13T14:09:26;101148.94;;;3.03;67.44
64388;BME280;50709;52.648;4.764;2022-12-13T14:28:00;101142.25;;;3.09;72.20
64388;BME280;50709;52.648;4.764;2022-12-13T14:30:28;101135.03;;;3.23;72.64
64388;BME280;50709;52.648;4.764;2022-12-13T14:32:53;101129.31;;;3.31;72.91
64388;BME280;50709;52.648;4.764;2022-12-13T14:35:26;101131.81;;;3.52;73.96
64388;BME280;50709;52.648;4.764;2022-12-13T14:38:34;101133.25;;;2.97;68.11
64388;BME280;50709;52.648;4.764;2022-12-13T14:40:46;101118.31;;;3.13;73.44
64388;BME280;50709;52.648;4.764;2022-12-13T14:43:22;101132.56;;;2.58;65.72
64388;BME280;50709;52.648;4.764;2022-12-13T14:45:50;101116.13;;;3.24;74.24
64388;BME280;50709;52.648;4.764;2022-12-13T14:48:17;101127.78;;;2.90;70.87
64388;BME280;50709;52.648;4.764;2022-12-13T14:50:43;101125.69;;;3.26;73.71
64388;BME280;50709;52.648;4.764;2022-12-13T14:55:45;101115.34;;;3.26;71.20
64388;BME280;50709;52.648;4.764;2022-12-13T14:58:25;101117.50;;;3.14;68.28
64388;BME280;50709;52.648;4.764;2022-12-13T15:00:52;101115.34;;;3.02;70.10